Time;durP1;ratioP1;P1;durP2;ratioP2;P2;SDS_P1;SDS_P2;PMS_P1;PMS_P2;Temp;Humidity;BMP_temperature;BMP_pressure;BME280_temperature;BME280_humidity;BME280_pressure;Samples;Min_cycle;Max_cycle;Signal;HPM_P1;HPM_P2
2022/11/26 00:01:39;;;;;;;9.85;3.90;;;23.40;27.10;;;;;;5021576;28;20076;-66
2022/11/26 00:04:06;;;;;;;23.88;4.15;;;23.30;26.70;;;;;;5020331;28;20176;-66
2022/11/26 00:06:41;;;;;;;29.80;3.95;;;23.10;28.50;;;;;;5014257;28;20597;-65
2022/11/26 00:09:14;;;;;;;23.88;3.67;;;23.00;28.60;;;;;;5016995;28;20601;-64
2022/11/26 00:11:41;;;;;;;14.75;2.55;;;22.80;29.40;;;;;;4996680;28;20081;-66
2022/11/26 00:14:15;;;;;;;15.13;2.40;;;22.70;30.00;;;;;;5014210;28;20165;-64
2022/11/26 00:16:42;;;;;;;16.92;2.30;;;22.50;30.80;;;;;;5017919;28;20160;-65
2022/11/26 00:19:09;;;;;;;13.02;2.13;;;22.40;31.70;;;;;;5016436;28;20121;-64
2022/11/26 00:21:38;;;;;;;12.23;2.10;;;22.20;30.80;;;;;;5025033;28;20085;-65
2022/11/26 00:24:11;;;;;;;9.13;2.83;;;22.10;31.10;;;;;;5013279;28;20438;-64
2022/11/26 00:26:38;;;;;;;20.08;3.22;;;21.90;32.40;;;;;;5024274;28;20086;-63
2022/11/26 00:29:04;;;;;;;16.80;3.78;;;21.80;32.70;;;;;;5021609;28;20102;-64
2022/11/26 00:31:31;;;;;;;18.08;3.72;;;21.70;31.70;;;;;;5018856;28;20070;-63
2022/11/26 00:33:57;;;;;;;13.75;3.45;;;21.60;32.90;;;;;;5017597;28;20082;-66
2022/11/26 00:36:27;;;;;;;17.73;3.50;;;21.50;32.20;;;;;;5020399;28;20074;-64
2022/11/26 00:39:11;;;;;;;31.92;4.10;;;21.40;32.50;;;;;;5020492;28;20161;-64
2022/11/26 00:41:38;;;;;;;21.85;5.50;;;21.20;33.80;;;;;;5013653;28;20082;-64
2022/11/26 00:44:20;;;;;;;37.58;7.57;;;21.10;33.10;;;;;;5019739;28;20082;-64
2022/11/26 00:46:47;;;;;;;29.33;5.80;;;20.90;34.50;;;;;;5018381;28;20074;-65
2022/11/26 00:49:14;;;;;;;33.20;5.32;;;20.80;33.70;;;;;;5002139;28;20097;-64
2022/11/26 00:51:42;;;;;;;19.70;4.57;;;20.60;34.10;;;;;;5013983;28;20593;-64
2022/11/26 00:54:11;;;;;;;21.50;5.40;;;20.60;34.80;;;;;;5023142;28;20121;-66
2022/11/26 00:56:39;;;;;;;28.25;5.63;;;20.50;34.80;;;;;;5018823;28;20609;-64
2022/11/26 00:59:06;;;;;;;24.42;5.63;;;20.40;34.40;;;;;;5020176;28;20087;-64
2022/11/26 01:01:32;;;;;;;37.63;6.75;;;20.20;35.00;;;;;;4998318;28;20086;-65
2022/11/26 01:03:58;;;;;;;20.15;6.22;;;20.10;35.00;;;;;;5016313;28;20078;-63
2022/11/26 01:06:37;;;;;;;40.45;6.30;;;20.00;34.90;;;;;;5026247;28;20177;-64
2022/11/26 01:09:05;;;;;;;42.25;7.18;;;19.80;34.80;;;;;;5022284;28;20094;-64
2022/11/26 01:11:32;;;;;;;45.75;7.57;;;19.80;35.10;;;;;;5023396;28;20070;-64
2022/11/26 01:13:59;;;;;;;51.55;8.88;;;19.60;35.30;;;;;;5022537;28;20509;-64
2022/11/26 01:16:34;;;;;;;32.95;8.25;;;19.50;35.00;;;;;;5022120;28;20106;-64
2022/11/26 01:19:01;;;;;;;44.28;8.98;;;19.50;35.50;;;;;;5017204;28;20124;-64
2022/11/26 01:21:30;;;;;;;35.22;7.28;;;19.30;36.10;;;;;;5021869;28;20837;-65
2022/11/26 01:23:57;;;;;;;26.75;7.32;;;19.20;36.50;;;;;;5026610;28;20086;-63
2022/11/26 01:26:26;;;;;;;46.28;7.95;;;19.10;37.50;;;;;;5021128;28;20157;-61
2022/11/26 01:28:54;;;;;;;40.78;8.48;;;19.00;36.50;;;;;;5020802;28;20112;-62
2022/11/26 01:31:26;;;;;;;38.90;8.95;;;18.90;36.70;;;;;;5023746;28;20408;-63
2022/11/26 01:33:53;;;;;;;37.90;8.23;;;18.90;37.80;;;;;;5019280;28;20075;-62
2022/11/26 01:36:30;;;;;;;37.40;8.38;;;18.90;37.90;;;;;;5021781;28;20086;-63
2022/11/26 01:39:03;;;;;;;35.70;6.70;;;18.70;38.20;;;;;;5024717;28;20128;-65
2022/11/26 01:41:57;;;;;;;39.75;7.70;;;18.60;37.50;;;;;;5026820;28;20133;-64
2022/11/26 01:44:30;;;;;;;35.65;7.07;;;18.50;37.60;;;;;;5020862;28;20212;-65
2022/11/26 01:46:57;;;;;;;44.60;7.28;;;18.30;38.00;;;;;;5022605;28;20090;-63
2022/11/26 01:49:29;;;;;;;38.35;6.63;;;18.20;38.60;;;;;;5018916;28;20112;-62
2022/11/26 01:52:09;;;;;;;49.45;7.70;;;18.20;38.30;;;;;;5020875;28;20541;-63
2022/11/26 01:54:39;;;;;;;42.45;7.88;;;18.10;39.60;;;;;;5024453;28;20074;-65
2022/11/26 01:57:17;;;;;;;42.45;7.55;;;18.00;40.20;;;;;;5024207;28;20539;-62
2022/11/26 01:59:49;;;;;;;35.38;7.65;;;18.00;39.40;;;;;;5020455;28;20070;-65
2022/11/26 02:02:16;;;;;;;52.08;8.75;;;17.90;39.00;;;;;;5018601;28;20074;-66
2022/11/26 02:04:57;;;;;;;60.40;10.43;;;17.80;39.30;;;;;;5016575;28;20122;-66
2022/11/26 02:07:23;;;;;;;36.67;9.35;;;17.80;38.80;;;;;;5013740;28;20074;-63
2022/11/26 02:09:50;;;;;;;55.88;10.43;;;17.70;39.10;;;;;;5019700;28;20089;-66
2022/11/26 02:12:16;;;;;;;82.13;12.50;;;17.60;39.40;;;;;;5019830;28;20078;-65
2022/11/26 02:14:44;;;;;;;61.22;10.40;;;17.60;40.50;;;;;;5022025;28;20101;-69
2022/11/26 02:17:13;;;;;;;76.28;11.82;;;17.60;40.70;;;;;;5021607;28;20101;-66
2022/11/26 02:20:04;;;;;;;58.92;14.60;;;17.50;41.20;;;;;;5018217;28;20082;-64
2022/11/26 02:22:46;;;;;;;57.05;11.55;;;17.40;40.30;;;;;;5022514;28;20153;-64
2022/11/26 02:25:37;;;;;;;59.63;15.57;;;17.30;40.50;;;;;;5024067;28;20473;-64
2022/11/26 02:28:26;;;;;;;53.67;12.35;;;17.30;40.10;;;;;;5024295;28;20074;-65
2022/11/26 02:31:31;;;;;;;64.45;15.40;;;17.20;40.60;;;;;;5021296;28;20158;-63
2022/11/26 02:34:17;;;;;;;79.88;15.27;;;17.00;41.00;;;;;;5017795;28;20140;-63
2022/11/26 02:37:01;;;;;;;63.38;16.35;;;17.00;41.90;;;;;;5016793;28;20112;-68
2022/11/26 02:39:28;;;;;;;70.60;16.92;;;17.00;43.20;;;;;;5017735;28;20105;-64
2022/11/26 02:41:58;;;;;;;75.85;17.40;;;16.90;42.30;;;;;;5023242;28;20090;-64
2022/11/26 02:44:45;;;;;;;68.18;16.98;;;16.80;42.20;;;;;;5019823;28;20144;-63
2022/11/26 02:47:14;;;;;;;90.00;19.67;;;16.70;42.80;;;;;;5020105;28;20442;-65
2022/11/26 02:49:43;;;;;;;77.22;19.70;;;16.70;43.20;;;;;;5019372;28;20093;-62
2022/11/26 02:52:12;;;;;;;99.68;20.48;;;16.60;43.10;;;;;;5025016;28;20124;-63
2022/11/26 02:54:41;;;;;;;74.15;22.10;;;16.60;43.20;;;;;;5018287;28;20164;-62
2022/11/26 02:57:12;;;;;;;106.00;29.45;;;16.40;43.30;;;;;;5018975;28;20103;-62
2022/11/26 02:59:39;;;;;;;88.13;24.55;;;16.40;43.20;;;;;;5024723;28;20072;-65
2022/11/26 03:02:28;;;;;;;77.20;23.75;;;16.40;42.90;;;;;;5025032;28;20166;-62
2022/11/26 03:04:58;;;;;;;96.68;27.08;;;16.40;43.70;;;;;;5020120;28;20593;-64
2022/11/26 03:07:27;;;;;;;108.03;26.95;;;16.30;43.70;;;;;;5023527;28;20084;-64
2022/11/26 03:09:57;;;;;;;94.65;28.98;;;16.30;43.90;;;;;;5021173;28;20454;-62
2022/11/26 03:12:23;;;;;;;98.28;29.15;;;16.20;43.60;;;;;;5018638;28;20540;-61
2022/11/26 03:14:50;;;;;;;86.93;26.60;;;16.10;43.60;;;;;;5022099;28;20110;-63
2022/11/26 03:17:17;;;;;;;103.65;25.48;;;16.10;44.90;;;;;;5022175;28;20435;-64
2022/11/26 03:19:44;;;;;;;112.35;27.63;;;15.90;44.40;;;;;;5016488;28;20511;-64
2022/11/26 03:22:12;;;;;;;107.13;25.75;;;16.00;45.40;;;;;;5021772;28;20440;-62
2022/11/26 03:24:39;;;;;;;117.03;27.15;;;16.00;45.50;;;;;;5017416;28;20102;-63
2022/11/26 03:27:06;;;;;;;88.63;25.30;;;15.80;45.70;;;;;;5021162;28;20127;-62
2022/11/26 03:29:32;;;;;;;125.80;28.98;;;15.80;45.60;;;;;;5020404;28;20174;-64
2022/11/26 03:31:58;;;;;;;;;;;15.70;46.10;;;;;;5019248;28;20061;-63
2022/11/26 03:34:25;;;;;;;116.13;31.02;;;15.60;45.60;;;;;;5019428;28;20011;-62
2022/11/26 03:36:51;;;;;;;124.22;31.25;;;15.60;45.40;;;;;;5020133;28;20181;-63
2022/11/26 03:39:18;;;;;;;114.45;32.50;;;15.60;46.20;;;;;;5019408;28;20092;-65
2022/11/26 03:41:44;;;;;;;;;;;15.60;47.00;;;;;;5017122;28;20129;-63
2022/11/26 03:44:11;;;;;;;105.00;30.02;;;15.60;47.00;;;;;;5020881;28;20042;-63
2022/11/26 03:46:38;;;;;;;121.50;28.73;;;15.50;46.70;;;;;;5021366;28;20077;-64
2022/11/26 03:49:05;;;;;;;129.23;31.58;;;15.40;45.90;;;;;;5022492;28;20129;-63
2022/11/26 03:51:31;;;;;;;122.35;31.77;;;15.40;46.10;;;;;;5019573;28;20070;-62
2022/11/26 03:53:58;;;;;;;107.97;30.23;;;15.40;47.00;;;;;;5016823;28;20089;-62
2022/11/26 03:56:24;;;;;;;;;;;15.40;47.10;;;;;;5019555;28;20082;-63
2022/11/26 03:58:51;;;;;;;120.53;31.70;;;15.20;46.00;;;;;;5016538;28;20484;-62
2022/11/26 04:01:17;;;;;;;;;;;15.20;46.00;;;;;;5021916;28;20082;-62
2022/11/26 04:03:43;;;;;;;115.97;31.00;;;15.10;46.30;;;;;;5019190;28;20446;-63
2022/11/26 04:06:09;;;;;;;;;;;15.10;46.60;;;;;;5022713;28;20128;-62
2022/11/26 04:08:35;;;;;;;125.35;31.33;;;15.00;46.70;;;;;;5021282;28;20006;-65
2022/11/26 04:11:01;;;;;;;;;;;15.00;46.70;;;;;;5021308;28;20066;-63
2022/11/26 04:13:28;;;;;;;124.40;32.53;;;14.90;46.50;;;;;;5021378;28;19980;-66
2022/11/26 04:15:54;;;;;;;;;;;14.90;47.50;;;;;;5018171;28;20066;-63
2022/11/26 04:18:20;;;;;;;116.97;32.83;;;14.80;47.30;;;;;;5014930;28;19964;-63
2022/11/26 04:20:46;;;;;;;;;;;14.80;47.10;;;;;;5022748;28;20120;-64
2022/11/26 04:23:13;;;;;;;134.70;32.30;;;14.70;47.20;;;;;;5022607;28;19957;-64
2022/11/26 04:25:39;;;;;;;;;;;14.70;47.90;;;;;;5014276;28;20613;-64
2022/11/26 04:28:05;;;;;;;134.65;33.38;;;14.60;47.30;;;;;;5026309;28;19958;-68
2022/11/26 04:30:31;;;;;;;;;;;14.60;47.00;;;;;;5021739;28;20070;-64
2022/11/26 04:32:57;;;;;;;154.30;37.45;;;14.60;46.80;;;;;;5018086;28;19964;-62
2022/11/26 04:35:23;;;;;;;;;;;14.60;47.90;;;;;;5019129;28;20066;-63
2022/11/26 04:37:50;;;;;;;123.70;33.72;;;14.60;47.40;;;;;;5021184;28;19967;-62
2022/11/26 04:40:16;;;;;;;;;;;14.60;48.70;;;;;;5020542;28;20090;-67
2022/11/26 04:42:42;;;;;;;128.93;34.13;;;14.50;48.10;;;;;;5023469;28;20072;-64
2022/11/26 04:45:09;;;;;;;;;;;14.50;48.40;;;;;;5020633;28;20066;-61
2022/11/26 04:47:35;;;;;;;158.93;36.78;;;14.50;48.10;;;;;;5017924;28;19958;-65
2022/11/26 04:50:01;;;;;;;;;;;14.50;48.40;;;;;;5016928;28;20098;-66
2022/11/26 04:52:27;;;;;;;137.35;34.55;;;14.40;48.10;;;;;;5018576;28;19969;-66
2022/11/26 04:54:53;;;;;;;;;;;14.40;48.80;;;;;;5017499;28;20070;-64
2022/11/26 04:57:20;;;;;;;183.43;44.22;;;14.40;48.10;;;;;;5023131;28;20040;-65
2022/11/26 04:59:46;;;;;;;;;;;14.40;47.70;;;;;;5014960;28;20101;-63
2022/11/26 05:02:12;;;;;;;152.98;47.15;;;14.40;48.10;;;;;;5009775;28;19988;-66
2022/11/26 05:04:38;;;;;;;;;;;14.30;47.70;;;;;;5023148;28;20136;-63
2022/11/26 05:07:05;;;;;;;195.73;50.58;;;14.30;48.00;;;;;;5013877;28;20017;-63
2022/11/26 05:09:31;;;;;;;172.32;49.63;;;14.20;47.70;;;;;;5023786;28;20497;-64
2022/11/26 05:11:57;;;;;;;;;;;14.20;48.60;;;;;;5017102;28;20120;-64
2022/11/26 05:14:24;;;;;;;141.88;45.60;;;14.20;47.90;;;;;;5012660;28;20323;-62
2022/11/26 05:16:50;;;;;;;165.15;47.28;;;14.30;48.00;;;;;;5008170;28;20082;-62
2022/11/26 05:19:16;;;;;;;;;;;14.20;48.70;;;;;;5015526;28;20569;-62
2022/11/26 05:21:43;;;;;;;149.32;44.03;;;14.10;47.90;;;;;;5016886;28;19958;-64
2022/11/26 05:24:09;;;;;;;;;;;14.10;48.20;;;;;;5021302;28;20180;-63
2022/11/26 05:26:35;;;;;;;149.50;43.17;;;14.00;47.90;;;;;;5021856;28;19961;-61
2022/11/26 05:29:01;;;;;;;;;;;13.90;48.50;;;;;;5023497;28;20088;-64
2022/11/26 05:31:28;;;;;;;132.07;40.17;;;14.00;47.90;;;;;;5017984;28;20044;-63
2022/11/26 05:33:55;;;;;;;136.23;39.03;;;14.10;48.20;;;;;;5020046;28;20095;-61
2022/11/26 05:36:21;;;;;;;;;;;14.00;48.40;;;;;;5017680;28;20070;-66
2022/11/26 05:38:47;;;;;;;137.05;39.47;;;13.90;49.00;;;;;;5022479;28;19958;-62
2022/11/26 05:41:13;;;;;;;;;;;13.90;49.40;;;;;;5018405;28;20138;-64
2022/11/26 05:43:40;;;;;;;142.00;40.53;;;13.90;50.00;;;;;;5023068;28;20015;-63
2022/11/26 05:46:06;;;;;;;;;;;13.90;50.30;;;;;;5023723;28;20076;-63
2022/11/26 05:48:33;;;;;;;157.65;43.63;;;13.80;50.90;;;;;;5016709;28;19973;-63
2022/11/26 05:51:01;;;;;;;160.63;46.58;;;13.80;50.40;;;;;;5018269;28;20074;-63
2022/11/26 05:53:29;;;;;;;144.00;46.05;;;13.70;50.20;;;;;;5026834;28;20416;-63
2022/11/26 05:55:55;;;;;;;153.60;44.90;;;13.60;50.80;;;;;;5018478;28;20112;-63
2022/11/26 05:58:22;;;;;;;154.38;49.25;;;13.60;51.00;;;;;;5024734;28;20545;-62
2022/11/26 06:00:48;;;;;;;;;;;13.60;50.70;;;;;;5017355;28;20132;-65
2022/11/26 06:03:14;;;;;;;165.95;57.92;;;13.60;51.00;;;;;;5020709;28;19996;-63
2022/11/26 06:05:40;;;;;;;;;;;13.60;50.60;;;;;;5026305;28;20597;-65
2022/11/26 06:08:06;;;;;;;166.20;57.15;;;13.50;50.30;;;;;;5011138;28;19962;-63
2022/11/26 06:10:33;;;;;;;138.40;51.50;;;13.30;51.50;;;;;;5015327;28;20081;-64
2022/11/26 06:12:59;;;;;;;;;;;13.20;50.90;;;;;;5026487;28;20551;-65
2022/11/26 06:15:25;;;;;;;174.10;54.08;;;13.10;51.50;;;;;;5021532;28;19985;-63
2022/11/26 06:17:51;;;;;;;;;;;13.10;50.80;;;;;;5018341;28;20088;-65
2022/11/26 06:20:18;;;;;;;145.93;51.38;;;13.10;50.40;;;;;;5020557;28;20414;-65
2022/11/26 06:22:44;;;;;;;153.15;53.85;;;13.20;50.80;;;;;;5028031;28;20090;-64
2022/11/26 06:25:12;;;;;;;;;;;13.20;51.60;;;;;;5014121;28;20093;-63
2022/11/26 06:27:39;;;;;;;145.43;50.95;;;13.20;51.70;;;;;;5026720;28;20399;-65
2022/11/26 06:30:08;;;;;;;159.57;49.97;;;13.20;51.60;;;;;;5017614;28;20090;-63
2022/11/26 06:32:34;;;;;;;158.05;52.30;;;13.20;51.60;;;;;;5011126;28;20082;-63
2022/11/26 06:35:00;;;;;;;;;;;13.10;52.20;;;;;;5019716;28;20098;-66
2022/11/26 06:37:27;;;;;;;150.77;50.08;;;13.10;51.80;;;;;;5021380;28;20007;-64
2022/11/26 06:39:53;;;;;;;;;;;13.00;52.10;;;;;;5020607;28;20085;-64
2022/11/26 06:42:19;;;;;;;149.55;52.22;;;12.80;52.50;;;;;;5017957;28;19958;-63
2022/11/26 06:44:45;;;;;;;137.27;51.60;;;12.70;52.70;;;;;;5022959;28;20106;-63
2022/11/26 06:47:12;;;;;;;;;;;12.70;52.70;;;;;;5019563;28;20442;-64
2022/11/26 06:49:39;;;;;;;121.93;45.43;;;12.60;52.00;;;;;;5018437;28;19977;-64
2022/11/26 06:52:06;;;;;;;145.95;46.78;;;12.50;52.00;;;;;;5020579;28;20455;-61
2022/11/26 06:54:32;;;;;;;;;;;12.50;52.30;;;;;;5030101;28;20102;-63
2022/11/26 06:56:58;;;;;;;142.52;46.50;;;12.50;52.40;;;;;;5022048;28;19979;-64
2022/11/26 06:59:24;;;;;;;;;;;12.60;53.00;;;;;;5026920;28;20518;-65
2022/11/26 07:01:51;;;;;;;159.35;48.53;;;12.70;53.50;;;;;;5024328;28;19973;-62
2022/11/26 07:04:17;;;;;;;;;;;12.70;53.10;;;;;;5002385;28;20092;-63
2022/11/26 07:06:44;;;;;;;156.02;47.60;;;12.80;53.50;;;;;;5025434;28;19986;-63
2022/11/26 07:09:12;;;;;;;137.15;46.47;;;12.80;52.90;;;;;;5014371;28;20096;-65
2022/11/26 07:11:40;;;;;;;157.77;45.72;;;12.70;52.60;;;;;;5022462;28;20470;-64
2022/11/26 07:14:07;;;;;;;128.40;45.83;;;12.70;53.50;;;;;;5023170;28;20077;-65
2022/11/26 07:16:34;;;;;;;141.57;47.85;;;12.70;52.30;;;;;;5012281;28;20094;-62
2022/11/26 07:19:01;;;;;;;156.40;47.38;;;12.70;52.80;;;;;;5012906;28;20478;-65
2022/11/26 07:21:28;;;;;;;161.30;45.92;;;12.70;52.80;;;;;;4993749;28;20498;-63
2022/11/26 07:23:54;;;;;;;156.20;60.78;;;12.70;52.80;;;;;;5019685;28;20089;-62
2022/11/26 07:26:21;;;;;;;;;;;12.60;54.00;;;;;;5019890;28;20067;-63
2022/11/26 07:28:48;;;;;;;189.13;65.53;;;12.60;54.30;;;;;;5012923;28;19978;-61
2022/11/26 07:31:19;;;;;;;185.73;66.22;;;12.60;53.00;;;;;;5020046;28;20078;-63
2022/11/26 07:33:46;;;;;;;177.10;65.50;;;12.50;52.70;;;;;;5010775;28;20082;-63
2022/11/26 07:36:24;;;;;;;134.88;40.85;;;12.40;52.10;;;;;;5022670;28;20275;-64
2022/11/26 07:38:53;;;;;;;148.40;41.80;;;12.40;51.60;;;;;;5013417;28;20094;-65
2022/11/26 07:41:20;;;;;;;141.65;42.03;;;12.30;52.70;;;;;;5022811;28;20102;-64
2022/11/26 07:43:46;;;;;;;;;;;12.40;53.50;;;;;;5018618;28;20607;-64
2022/11/26 07:46:15;;;;;;;179.25;44.63;;;12.30;53.80;;;;;;5016275;28;20060;-63
2022/11/26 07:48:42;;;;;;;155.85;45.97;;;12.20;53.30;;;;;;5021400;28;20086;-64
2022/11/26 07:51:16;;;;;;;151.95;43.58;;;12.30;54.30;;;;;;5021806;28;20493;-64
2022/11/26 07:53:42;;;;;;;140.73;41.80;;;12.30;54.00;;;;;;5018738;28;20073;-63
2022/11/26 07:56:09;;;;;;;;;;;12.30;54.10;;;;;;5019145;28;20550;-65
2022/11/26 07:58:35;;;;;;;161.55;47.20;;;12.20;54.60;;;;;;5019162;28;20443;-62
2022/11/26 08:01:07;;;;;;;;;;;12.10;55.00;;;;;;5021621;28;20074;-62
2022/11/26 08:03:40;;;;;;;170.40;44.92;;;12.10;55.70;;;;;;5015120;28;20395;-64
2022/11/26 08:06:14;;;;;;;164.10;49.47;;;12.20;55.30;;;;;;5012284;28;20110;-61
2022/11/26 08:08:40;;;;;;;176.18;47.55;;;12.10;54.90;;;;;;5013569;28;20181;-63
2022/11/26 08:11:19;;;;;;;160.85;49.03;;;12.10;54.60;;;;;;5017089;28;20077;-64
2022/11/26 08:13:46;;;;;;;186.38;54.17;;;12.20;54.60;;;;;;5018186;28;20089;-62
2022/11/26 08:16:13;;;;;;;175.93;52.95;;;12.20;55.10;;;;;;5015763;28;20133;-62
2022/11/26 08:18:40;;;;;;;183.98;56.10;;;12.10;54.80;;;;;;5014878;28;20090;-64
2022/11/26 08:21:06;;;;;;;200.38;52.50;;;12.00;55.00;;;;;;5012429;28;20601;-65
2022/11/26 08:23:33;;;;;;;;;;;12.20;55.10;;;;;;5016184;28;20078;-64
2022/11/26 08:26:05;;;;;;;169.70;51.88;;;12.10;55.30;;;;;;5011346;28;20030;-65
2022/11/26 08:28:32;;;;;;;180.45;52.00;;;12.10;55.80;;;;;;5015856;28;20086;-65
2022/11/26 08:31:04;;;;;;;183.00;54.15;;;12.00;56.00;;;;;;5014646;28;20062;-64
2022/11/26 08:33:31;;;;;;;171.73;52.97;;;11.90;55.90;;;;;;5013108;28;20497;-62
2022/11/26 08:35:57;;;;;;;196.20;52.17;;;11.90;55.40;;;;;;5013420;28;20141;-63
2022/11/26 08:38:23;;;;;;;;;;;11.90;56.00;;;;;;5020535;28;20550;-64
2022/11/26 08:40:50;;;;;;;176.13;55.08;;;11.90;56.00;;;;;;5020750;28;19958;-63
2022/11/26 08:43:16;;;;;;;183.68;53.72;;;11.80;56.00;;;;;;5005982;28;20106;-63
2022/11/26 08:45:42;;;;;;;;;;;11.70;56.10;;;;;;5021533;28;20070;-62
2022/11/26 08:48:09;;;;;;;162.68;51.55;;;11.70;56.30;;;;;;5022098;28;20444;-62
2022/11/26 08:50:35;;;;;;;;;;;11.70;56.00;;;;;;5018256;28;20451;-62
2022/11/26 08:53:01;;;;;;;170.50;53.38;;;11.70;56.20;;;;;;5020639;28;20057;-64
2022/11/26 08:55:27;;;;;;;;;;;11.70;55.80;;;;;;5013590;28;20075;-63
2022/11/26 08:57:54;;;;;;;175.95;52.55;;;11.70;56.30;;;;;;5017140;28;19964;-62
2022/11/26 09:00:20;;;;;;;;;;;11.70;56.10;;;;;;5021515;28;20086;-61
2022/11/26 09:02:46;;;;;;;163.40;52.92;;;11.70;56.10;;;;;;5019980;28;20389;-63
2022/11/26 09:05:13;;;;;;;146.25;49.00;;;11.70;56.70;;;;;;5018664;28;20118;-61
2022/11/26 09:07:39;;;;;;;;;;;11.70;57.00;;;;;;5016520;28;20159;-62
2022/11/26 09:10:06;;;;;;;185.93;56.90;;;11.70;56.60;;;;;;5017286;28;20043;-62
2022/11/26 09:12:33;;;;;;;173.13;58.08;;;11.70;56.40;;;;;;4998603;28;20267;-63
2022/11/26 09:14:59;;;;;;;170.30;55.47;;;11.50;56.30;;;;;;5017599;28;20153;-64
2022/11/26 09:17:26;;;;;;;158.02;52.15;;;11.40;57.40;;;;;;5020692;28;20112;-64
2022/11/26 09:19:52;;;;;;;;;;;11.40;57.80;;;;;;5018246;28;20090;-64
2022/11/26 09:22:18;;;;;;;178.05;59.10;;;11.30;58.70;;;;;;5017811;28;19958;-64
2022/11/26 09:24:44;;;;;;;;;;;11.10;58.20;;;;;;5016377;28;20085;-65
2022/11/26 09:27:11;;;;;;;173.55;57.45;;;11.10;57.70;;;;;;5017944;28;19974;-62
2022/11/26 09:29:37;;;;;;;183.77;58.80;;;11.10;57.90;;;;;;5004911;28;20114;-62
2022/11/26 09:32:03;;;;;;;;;;;11.30;58.00;;;;;;5024743;28;20226;-62
2022/11/26 09:34:31;;;;;;;194.70;56.45;;;11.40;58.20;;;;;;5022636;28;20027;-62
2022/11/26 09:36:57;;;;;;;169.18;57.30;;;11.40;58.10;;;;;;5024608;28;20113;-63
2022/11/26 09:39:23;;;;;;;;;;;11.40;57.60;;;;;;5029242;28;20070;-65
2022/11/26 09:42:07;;;;;;;181.55;60.20;;;11.30;58.00;;;;;;5020859;28;19957;-64
2022/11/26 09:45:15;;;;;;;164.50;57.13;;;11.30;58.50;;;;;;5018252;28;20074;-62
2022/11/26 09:47:46;;;;;;;181.70;57.58;;;11.10;58.80;;;;;;5024973;28;20074;-63
2022/11/26 09:50:13;;;;;;;170.90;59.08;;;11.10;59.20;;;;;;5020369;28;20109;-60
2022/11/26 09:53:25;;;;;;;159.20;57.72;;;11.00;59.00;;;;;;5021890;28;20078;-63
2022/11/26 09:55:54;;;;;;;162.02;60.55;;;11.10;59.20;;;;;;5018073;28;20079;-62
2022/11/26 09:58:41;;;;;;;173.25;60.70;;;11.10;59.50;;;;;;5016725;28;20435;-64
2022/11/26 10:01:16;;;;;;;161.93;56.63;;;10.90;58.80;;;;;;5016744;28;20070;-62
2022/11/26 10:03:42;;;;;;;168.88;56.78;;;10.90;58.80;;;;;;5026299;28;20389;-63
2022/11/26 10:06:17;;;;;;;;;;;11.00;59.10;;;;;;5028474;28;20473;-64
2022/11/26 10:09:02;;;;;;;153.60;57.35;;;11.00;59.60;;;;;;5024461;28;20506;-64
2022/11/26 10:11:38;;;;;;;185.77;57.50;;;11.00;59.40;;;;;;5013349;28;20109;-64
2022/11/26 10:14:16;;;;;;;166.05;56.47;;;11.10;59.30;;;;;;5027882;28;20067;-63
2022/11/26 10:17:13;;;;;;;171.82;56.05;;;11.00;59.50;;;;;;5027859;28;20156;-63
2022/11/26 10:19:45;;;;;;;166.13;55.95;;;11.10;58.80;;;;;;5022133;28;20075;-62
2022/11/26 10:22:22;;;;;;;175.00;57.58;;;11.10;59.00;;;;;;5021133;28;20078;-63
2022/11/26 10:24:50;;;;;;;167.27;55.55;;;11.00;59.40;;;;;;5024543;28;20070;-65
2022/11/26 10:27:19;;;;;;;162.80;54.40;;;11.00;59.10;;;;;;5023843;28;20089;-63
2022/11/26 10:29:59;;;;;;;161.20;56.30;;;11.00;57.90;;;;;;5015190;28;20157;-62
2022/11/26 10:32:38;;;;;;;138.50;50.92;;;10.80;58.00;;;;;;5013601;28;20109;-63
2022/11/26 10:35:05;;;;;;;153.13;52.50;;;10.70;59.20;;;;;;5013106;28;20066;-64
2022/11/26 10:37:32;;;;;;;142.55;51.88;;;10.60;59.00;;;;;;5013245;28;20161;-63
2022/11/26 10:40:17;;;;;;;163.02;51.72;;;10.70;58.60;;;;;;5019569;28;20070;-63
2022/11/26 10:42:54;;;;;;;130.05;48.67;;;10.70;58.50;;;;;;5019870;28;20073;-62
2022/11/26 10:45:21;;;;;;;;;;;10.70;58.80;;;;;;5027977;28;20075;-63
2022/11/26 10:47:48;;;;;;;142.13;50.35;;;10.70;59.10;;;;;;5025878;28;20012;-64
2022/11/26 10:50:24;;;;;;;141.23;50.95;;;10.70;58.80;;;;;;5011957;28;20094;-64
2022/11/26 10:52:51;;;;;;;136.48;46.85;;;10.70;58.40;;;;;;5026870;28;20144;-63
2022/11/26 10:55:29;;;;;;;134.60;45.80;;;10.60;57.90;;;;;;5012629;28;20097;-64
2022/11/26 10:58:06;;;;;;;143.90;47.65;;;10.60;58.10;;;;;;5019647;28;20070;-62
2022/11/26 11:00:41;;;;;;;;;;;10.60;57.80;;;;;;5020484;28;20074;-61
2022/11/26 11:03:19;;;;;;;144.68;50.58;;;10.50;58.40;;;;;;5026187;28;19964;-61
2022/11/26 11:05:46;;;;;;;147.90;49.78;;;10.40;58.60;;;;;;5016926;28;20167;-63
2022/11/26 11:08:26;;;;;;;136.70;48.30;;;10.40;58.60;;;;;;5019157;28;20085;-63
2022/11/26 11:10:55;;;;;;;128.73;51.33;;;10.40;57.90;;;;;;4998392;28;20074;-61
2022/11/26 11:13:24;;;;;;;147.98;55.63;;;10.20;58.50;;;;;;5020335;28;20121;-61
2022/11/26 11:16:00;;;;;;;155.25;55.78;;;10.10;58.30;;;;;;5024513;28;20070;-62
2022/11/26 11:18:27;;;;;;;172.53;58.30;;;10.00;58.70;;;;;;5020583;28;20149;-61
2022/11/26 11:20:54;;;;;;;;;;;9.90;59.80;;;;;;5029011;28;20357;-62
2022/11/26 11:23:27;;;;;;;186.68;60.95;;;9.90;60.40;;;;;;5020186;28;19993;-61
2022/11/26 11:26:03;;;;;;;185.20;62.42;;;10.00;60.30;;;;;;5013155;28;20070;-62
2022/11/26 11:28:32;;;;;;;207.50;67.35;;;10.10;60.40;;;;;;5016636;28;20093;-61
2022/11/26 11:31:18;;;;;;;198.90;64.72;;;10.20;60.40;;;;;;5025761;28;20442;-60
2022/11/26 11:33:45;;;;;;;208.38;65.85;;;10.20;59.80;;;;;;5025479;28;20164;-63
2022/11/26 11:36:20;;;;;;;200.07;67.30;;;10.00;61.10;;;;;;5021846;28;20507;-61
2022/11/26 11:38:54;;;;;;;222.57;74.10;;;10.00;60.60;;;;;;5021997;28;20082;-63
2022/11/26 11:41:34;;;;;;;216.23;70.80;;;9.90;60.70;;;;;;5028422;28;20301;-64
2022/11/26 11:44:22;;;;;;;233.55;78.72;;;9.90;61.00;;;;;;5019717;28;20078;-64
2022/11/26 11:47:01;;;;;;;266.50;78.95;;;10.00;61.60;;;;;;5014564;28;20569;-62
2022/11/26 11:49:48;;;;;;;260.80;83.70;;;10.10;61.20;;;;;;5010013;28;20094;-62
2022/11/26 11:52:35;;;;;;;246.40;80.43;;;10.20;60.60;;;;;;5026100;28;20066;-61
2022/11/26 11:55:19;;;;;;;247.93;77.90;;;10.20;60.60;;;;;;4981791;28;20086;-63
2022/11/26 11:57:51;;;;;;;246.20;81.88;;;10.30;60.70;;;;;;5019862;28;20074;-63
2022/11/26 12:00:39;;;;;;;269.02;80.68;;;10.20;60.90;;;;;;5018595;28;20543;-62
2022/11/26 12:03:46;;;;;;;246.15;80.57;;;10.20;60.70;;;;;;5018110;28;20082;-63
2022/11/26 12:06:28;;;;;;;246.90;76.55;;;10.20;60.80;;;;;;5010032;28;20120;-63
2022/11/26 12:09:39;;;;;;;267.70;80.47;;;10.10;60.80;;;;;;5013418;28;20164;-63
2022/11/26 12:12:15;;;;;;;214.15;73.63;;;10.00;60.90;;;;;;5012639;28;20075;-62
2022/11/26 12:14:48;;;;;;;241.32;79.13;;;9.90;60.90;;;;;;5021550;28;20074;-63
2022/11/26 12:17:32;;;;;;;255.07;77.47;;;9.90;61.50;;;;;;5011293;28;20074;-63
2022/11/26 12:20:13;;;;;;;255.48;79.40;;;10.00;61.60;;;;;;5010302;28;20125;-64
2022/11/26 12:22:45;;;;;;;264.23;77.22;;;10.00;61.50;;;;;;5022876;28;20474;-63
2022/11/26 12:25:26;;;;;;;255.00;77.88;;;10.00;61.60;;;;;;5020332;28;20145;-64
2022/11/26 12:28:02;;;;;;;233.30;79.20;;;10.00;61.10;;;;;;5016234;28;20073;-63
2022/11/26 12:30:47;;;;;;;242.32;79.75;;;9.90;61.00;;;;;;5010059;28;20112;-63
2022/11/26 12:33:26;;;;;;;233.10;79.63;;;10.00;61.70;;;;;;5024738;28;20435;-64
2022/11/26 12:35:57;;;;;;;240.13;76.95;;;10.00;62.00;;;;;;5012329;28;21862;-62
2022/11/26 12:38:29;;;;;;;227.45;78.75;;;10.00;61.70;;;;;;5023493;28;20073;-62
2022/11/26 12:41:11;;;;;;;238.95;80.05;;;9.90;61.00;;;;;;5012374;28;20073;-64
2022/11/26 12:43:46;;;;;;;220.80;77.95;;;9.80;61.50;;;;;;5016063;28;20071;-63
2022/11/26 12:46:46;;;;;;;263.60;79.53;;;9.80;62.20;;;;;;5021215;28;20070;-61
2022/11/26 12:49:30;;;;;;;222.82;75.97;;;9.80;61.80;;;;;;5013413;28;20450;-62
2022/11/26 12:52:24;;;;;;;227.95;76.82;;;9.60;62.80;;;;;;5015452;28;20672;-62
2022/11/26 12:55:08;;;;;;;231.02;73.40;;;9.60;63.70;;;;;;5014705;28;20078;-64
2022/11/26 12:57:42;;;;;;;227.10;78.88;;;9.70;64.20;;;;;;5018857;28;20126;-63
2022/11/26 13:00:34;;;;;;;207.85;77.57;;;9.70;63.70;;;;;;5016360;28;20505;-63